NCAR-RAP Real-Time Weather Data

Output produced by METARs form (12 August 2020  17:50 UTC)
found at http://weather.rap.ucar.edu/surface/
 
KBOS 121654Z VRB03KT 10SM FEW045 FEW200 SCT250 32/18 A2999 RMK AO2 SLP154 T03220183
KBOS 121554Z 25005KT 10SM FEW045 FEW200 BKN250 31/18 A3000 RMK AO2 SLP157 T03060183
KBOS 121454Z 27004KT 10SM FEW045 FEW200 BKN250 29/19 A3000 RMK AO2 SLP157 T02940189 50001
KBOS 121354Z 31008KT 10SM FEW045 FEW160 SCT250 29/19 A3000 RMK AO2 SLP159 T02890189
KBOS 121254Z 27008KT 10SM FEW040 FEW140 SCT250 27/19 A3000 RMK AO2 SLP158 T02670189
KBOS 121154Z 26010KT 10SM SCT140 BKN250 27/21 A2999 RMK AO2 SLP156 T02670211 10267 20233 53015
KBOS 121054Z 23009KT 10SM FEW016 BKN140 BKN250 25/22 A2998 RMK AO2 SLP151 T02500217 $
KBOS 120954Z 22008KT 10SM FEW015 SCT110 BKN200 24/22 A2996 RMK AO2 SLP145 T02440217 $
KBOS 120854Z 22011KT 10SM FEW019 BKN200 25/22 A2995 RMK AO2 SLP141 T02500217 53001 $
KBOS 120835Z 22011KT 10SM SCT019 BKN250 25/22 A2995 RMK AO2 T02500217 $
KBOS 120754Z 21011KT 10SM BKN020 24/22 A2994 RMK AO2 SLP139 T02440217 $
KBOS 120654Z 22009KT 10SM FEW020 24/22 A2995 RMK AO2 SLP140 T02440217 $
KBOS 120554Z 20007KT 10SM FEW015 FEW250 23/21 A2995 RMK AO2 SLP141 T02330211 10272 20233 50004 $
KBOS 120454Z 21011KT 10SM FEW015 FEW250 24/22 A2995 RMK AO2 SLP142 T02440217 403440228 $
KBOS 120354Z 20010KT 10SM FEW010 FEW250 24/21 A2995 RMK AO2 SLP140 T02440211 $
KBOS 120254Z 21012KT 10SM FEW250 24/21 A2994 RMK AO2 SLP137 T02440211 50009 $
KBOS 120154Z 21011KT 10SM FEW250 25/19 A2994 RMK AO2 SLP137 T02500194 $
KBOS 120054Z 20012KT 10SM FEW070 FEW250 26/19 A2993 RMK AO2 SLP133 T02610189 $
KBOS 112354Z 19012KT 10SM FEW070 FEW250 27/20 A2991 RMK AO2 SLP128 T02720200 10339 20272 53007 $
KBOS 112254Z 20014KT 10SM FEW055 FEW250 29/21 A2989 RMK AO2 SLP122 T02940211 $
KBOS 112154Z 19015G22KT 10SM FEW055 FEW250 31/21 A2989 RMK AO2 SLP120 T03110211 $
KBOS 112054Z 19015KT 10SM FEW055 SCT250 32/21 A2989 RMK AO2 SLP120 T03220206 56013 $
KBOS 111954Z 18014KT 10SM FEW055 SCT250 33/21 A2989 RMK AO2 SLP121 T03280206
KBOS 111854Z 17011KT 10SM FEW055 SCT250 32/20 A2991 RMK AO2 SLP127 T03220200
KBOS 111754Z 18014KT 10SM SCT055 BKN250 32/19 A2993 RMK AO2 WSHFT 1730 SLP133 T03220194 10344 20256 56008
KBOS 111750Z 18016KT 10SM SCT055 BKN250 32/20 A2993 RMK AO2 WSHFT 1730
KBOS 111654Z 24010KT 10SM FEW055TCU SCT070 BKN250 33/19 A2994 RMK AO2 LTG DSNT SE-SW SLP137 TCU E-S T03280189
KBOS 111554Z 24009KT 10SM FEW050TCU BKN250 33/19 A2995 RMK AO2 SLP141 TCU SE-S T03280194
KBOS 111454Z 22008KT 10SM BKN250 32/21 A2996 RMK AO2 SLP146 T03170211 58001
KBOS 111354Z 19006KT 10SM BKN250 29/22 A2997 RMK AO2 SLP147 T02890222
KBOS 111254Z 19008KT 10SM FEW250 27/22 A2997 RMK AO2 SLP147 T02670222
KBOS 111154Z 20007KT 10SM FEW180 FEW250 26/22 A2997 RMK AO2 SLP147 T02560217 10256 20228 51005
KBOS 110954Z 21003KT 10SM FEW100 FEW250 23/21 A2996 RMK AO2 SLP146 T02280206
KBOS 110854Z 24004KT 10SM FEW100 SCT250 23/21 A2995 RMK AO2 SLP142 T02330206 53004
KBOS 110754Z 19004KT 10SM FEW100 SCT250 23/20 A2994 RMK AO2 SLP139 T02330200
KBOS 110554Z 23007KT 10SM SCT100 SCT250 26/20 A2994 RMK AO2 SLP138 T02560200 10289 20256 53001
KBOS 110454Z 24007KT 10SM FEW060 FEW250 27/20 A2994 RMK AO2 SLP137 T02670200 403440222
KBOS 110354Z 23008KT 10SM FEW060 SCT250 27/20 A2994 RMK AO2 SLP138 T02670200
KBOS 110254Z 23007KT 10SM FEW060 SCT250 27/20 A2994 RMK AO2 SLP137 T02720200 50007
KBOS 110154Z 21009KT 10SM SCT060 BKN250 27/21 A2995 RMK AO2 SLP140 T02720206
KBOS 110054Z 21009KT 10SM BKN060 BKN250 28/21 A2993 RMK AO2 SLP135 T02830206
KBOS 102354Z 21009KT 10SM SCT065 BKN250 29/21 A2992 RMK AO2 SLP130 T02890206 10344 20289 53001
KBOS 102254Z 19011KT 10SM FEW065 BKN250 31/19 A2991 RMK AO2 SLP128 T03060194
KBOS 102154Z VRB05KT 10SM SCT060 SCT250 34/17 A2990 RMK AO2 SLP126 T03390167
KBOS 102054Z 22009KT 10SM SCT065 SCT250 34/17 A2991 RMK AO2 SLP129 T03390172 56014
KBOS 101954Z VRB06KT 10SM SCT075 SCT250 34/17 A2993 RMK AO2 SLP133 T03390172
KBOS 101854Z 26006KT 10SM SCT075 BKN250 33/17 A2994 RMK AO2 SLP138 T03330172
KBOS 101754Z 22005KT 10SM SCT060 32/17 A2996 RMK AO2 SLP143 T03220172 10339 20244 56015